sensor_id;sensor_type;location;lat;lon;timestamp;temperature;humidity
23160;DHT22;11748;50.844;4.396;2022-07-17T00:01:05;19.30;92.00
23160;DHT22;11748;50.844;4.396;2022-07-17T00:03:31;19.20;92.10
23160;DHT22;11748;50.844;4.396;2022-07-17T00:05:57;19.20;92.20
23160;DHT22;11748;50.844;4.396;2022-07-17T00:08:23;19.10;92.30
23160;DHT22;11748;50.844;4.396;2022-07-17T00:10:50;19.10;92.30
23160;DHT22;11748;50.844;4.396;2022-07-17T00:13:16;19.10;92.30
23160;DHT22;11748;50.844;4.396;2022-07-17T00:15:43;19.10;92.30
23160;DHT22;11748;50.844;4.396;2022-07-17T00:18:08;19.10;92.40
23160;DHT22;11748;50.844;4.396;2022-07-17T00:20:35;19.00;92.50
23160;DHT22;11748;50.844;4.396;2022-07-17T00:23:03;19.00;92.60
23160;DHT22;11748;50.844;4.396;2022-07-17T00:25:28;19.00;92.60
23160;DHT22;11748;50.844;4.396;2022-07-17T00:27:54;19.00;92.70
23160;DHT22;11748;50.844;4.396;2022-07-17T00:30:20;19.00;92.60
23160;DHT22;11748;50.844;4.396;2022-07-17T00:32:47;19.00;92.70
23160;DHT22;11748;50.844;4.396;2022-07-17T00:35:13;19.00;92.70
23160;DHT22;11748;50.844;4.396;2022-07-17T00:37:45;18.90;92.80
23160;DHT22;11748;50.844;4.396;2022-07-17T00:40:14;18.90;93.00
23160;DHT22;11748;50.844;4.396;2022-07-17T00:42:42;18.90;93.00
23160;DHT22;11748;50.844;4.396;2022-07-17T00:45:10;18.90;93.00
23160;DHT22;11748;50.844;4.396;2022-07-17T00:50:28;18.90;93.10
23160;DHT22;11748;50.844;4.396;2022-07-17T00:52:54;18.80;93.10
23160;DHT22;11748;50.844;4.396;2022-07-17T00:55:20;18.80;93.10
23160;DHT22;11748;50.844;4.396;2022-07-17T00:57:48;18.80;93.50
23160;DHT22;11748;50.844;4.396;2022-07-17T01:00:16;18.80;93.20
23160;DHT22;11748;50.844;4.396;2022-07-17T01:02:48;18.70;93.30
23160;DHT22;11748;50.844;4.396;2022-07-17T01:05:16;18.70;93.50
23160;DHT22;11748;50.844;4.396;2022-07-17T01:07:42;18.70;93.50
23160;DHT22;11748;50.844;4.396;2022-07-17T01:10:10;18.70;93.50
23160;DHT22;11748;50.844;4.396;2022-07-17T01:12:36;18.70;93.60
23160;DHT22;11748;50.844;4.396;2022-07-17T01:15:03;18.60;93.60
23160;DHT22;11748;50.844;4.396;2022-07-17T01:17:30;18.60;93.60
23160;DHT22;11748;50.844;4.396;2022-07-17T01:19:57;18.60;93.70
23160;DHT22;11748;50.844;4.396;2022-07-17T01:22:23;18.60;93.80
23160;DHT22;11748;50.844;4.396;2022-07-17T01:24:49;18.60;93.90
23160;DHT22;11748;50.844;4.396;2022-07-17T01:27:15;18.50;93.90
23160;DHT22;11748;50.844;4.396;2022-07-17T01:29:42;18.50;94.00
23160;DHT22;11748;50.844;4.396;2022-07-17T01:32:09;18.60;94.00
23160;DHT22;11748;50.844;4.396;2022-07-17T01:34:36;18.50;94.10
23160;DHT22;11748;50.844;4.396;2022-07-17T01:37:01;18.40;94.20
23160;DHT22;11748;50.844;4.396;2022-07-17T01:39:27;18.40;94.30
23160;DHT22;11748;50.844;4.396;2022-07-17T01:42:12;18.40;94.40
23160;DHT22;11748;50.844;4.396;2022-07-17T01:44:38;18.40;94.40
23160;DHT22;11748;50.844;4.396;2022-07-17T01:47:04;18.40;94.50
23160;DHT22;11748;50.844;4.396;2022-07-17T01:49:30;18.40;94.60
23160;DHT22;11748;50.844;4.396;2022-07-17T01:51:55;18.40;94.60
23160;DHT22;11748;50.844;4.396;2022-07-17T01:54:26;18.40;94.60
23160;DHT22;11748;50.844;4.396;2022-07-17T01:56:52;18.40;94.60
23160;DHT22;11748;50.844;4.396;2022-07-17T01:59:18;18.30;94.70
23160;DHT22;11748;50.844;4.396;2022-07-17T02:01:44;18.30;94.70
23160;DHT22;11748;50.844;4.396;2022-07-17T02:04:10;18.30;94.70
23160;DHT22;11748;50.844;4.396;2022-07-17T02:06:35;18.30;94.70
23160;DHT22;11748;50.844;4.396;2022-07-17T02:09:02;18.30;94.80
23160;DHT22;11748;50.844;4.396;2022-07-17T02:11:28;18.20;94.80
23160;DHT22;11748;50.844;4.396;2022-07-17T02:13:54;18.20;94.80
23160;DHT22;11748;50.844;4.396;2022-07-17T02:16:20;18.30;94.80
23160;DHT22;11748;50.844;4.396;2022-07-17T02:18:46;18.20;94.80
23160;DHT22;11748;50.844;4.396;2022-07-17T02:21:11;18.20;94.80
23160;DHT22;11748;50.844;4.396;2022-07-17T02:23:37;18.30;94.80
23160;DHT22;11748;50.844;4.396;2022-07-17T02:26:03;18.20;94.80
23160;DHT22;11748;50.844;4.396;2022-07-17T02:28:29;18.20;94.80
23160;DHT22;11748;50.844;4.396;2022-07-17T02:30:54;18.20;94.90
23160;DHT22;11748;50.844;4.396;2022-07-17T02:33:20;18.20;94.90
23160;DHT22;11748;50.844;4.396;2022-07-17T02:35:47;18.20;94.90
23160;DHT22;11748;50.844;4.396;2022-07-17T02:38:13;18.10;94.90
23160;DHT22;11748;50.844;4.396;2022-07-17T02:40:39;18.10;94.90
23160;DHT22;11748;50.844;4.396;2022-07-17T02:43:07;18.10;95.00
23160;DHT22;11748;50.844;4.396;2022-07-17T02:45:33;18.00;95.00
23160;DHT22;11748;50.844;4.396;2022-07-17T02:47:59;18.00;95.10
23160;DHT22;11748;50.844;4.396;2022-07-17T02:50:24;18.00;95.10
23160;DHT22;11748;50.844;4.396;2022-07-17T02:52:50;18.00;95.10
23160;DHT22;11748;50.844;4.396;2022-07-17T02:55:18;18.00;95.10
23160;DHT22;11748;50.844;4.396;2022-07-17T02:57:44;17.90;95.20
23160;DHT22;11748;50.844;4.396;2022-07-17T03:00:14;17.90;95.20
23160;DHT22;11748;50.844;4.396;2022-07-17T03:02:42;17.90;95.20
23160;DHT22;11748;50.844;4.396;2022-07-17T03:05:08;17.80;95.40
23160;DHT22;11748;50.844;4.396;2022-07-17T03:07:34;17.80;95.50
23160;DHT22;11748;50.844;4.396;2022-07-17T03:10:00;17.80;95.50
23160;DHT22;11748;50.844;4.396;2022-07-17T03:12:26;17.80;95.60
23160;DHT22;11748;50.844;4.396;2022-07-17T03:14:52;17.80;95.50
23160;DHT22;11748;50.844;4.396;2022-07-17T03:17:18;17.80;95.60
23160;DHT22;11748;50.844;4.396;2022-07-17T03:19:45;17.80;95.60
23160;DHT22;11748;50.844;4.396;2022-07-17T03:22:10;17.80;95.60
23160;DHT22;11748;50.844;4.396;2022-07-17T03:24:36;17.80;95.60
23160;DHT22;11748;50.844;4.396;2022-07-17T03:27:02;17.80;95.70
23160;DHT22;11748;50.844;4.396;2022-07-17T03:29:28;17.70;95.70
23160;DHT22;11748;50.844;4.396;2022-07-17T03:31:53;17.70;95.70
23160;DHT22;11748;50.844;4.396;2022-07-17T03:34:19;17.70;95.80
23160;DHT22;11748;50.844;4.396;2022-07-17T03:36:45;17.70;95.80
23160;DHT22;11748;50.844;4.396;2022-07-17T03:39:12;17.70;95.90
23160;DHT22;11748;50.844;4.396;2022-07-17T03:41:38;17.70;95.90
23160;DHT22;11748;50.844;4.396;2022-07-17T03:44:03;17.70;96.10
23160;DHT22;11748;50.844;4.396;2022-07-17T03:46:29;17.70;95.90
23160;DHT22;11748;50.844;4.396;2022-07-17T03:48:56;17.60;96.00
23160;DHT22;11748;50.844;4.396;2022-07-17T03:51:23;17.60;96.00
23160;DHT22;11748;50.844;4.396;2022-07-17T03:53:50;17.60;96.10
23160;DHT22;11748;50.844;4.396;2022-07-17T03:56:15;17.60;96.10
23160;DHT22;11748;50.844;4.396;2022-07-17T03:58:41;17.60;96.10
23160;DHT22;11748;50.844;4.396;2022-07-17T04:01:07;17.50;96.20
23160;DHT22;11748;50.844;4.396;2022-07-17T04:03:32;17.50;96.20
23160;DHT22;11748;50.844;4.396;2022-07-17T04:06:00;17.50;96.30
23160;DHT22;11748;50.844;4.396;2022-07-17T04:08:26;17.50;96.40
23160;DHT22;11748;50.844;4.396;2022-07-17T04:10:52;17.50;96.40
23160;DHT22;11748;50.844;4.396;2022-07-17T04:13:17;17.50;96.40
23160;DHT22;11748;50.844;4.396;2022-07-17T04:15:43;17.60;96.30
23160;DHT22;11748;50.844;4.396;2022-07-17T04:18:23;17.60;96.30
23160;DHT22;11748;50.844;4.396;2022-07-17T04:20:50;17.50;96.60
23160;DHT22;11748;50.844;4.396;2022-07-17T04:23:16;17.50;96.40
23160;DHT22;11748;50.844;4.396;2022-07-17T04:25:42;17.50;96.30
23160;DHT22;11748;50.844;4.396;2022-07-17T04:28:09;17.60;96.40
23160;DHT22;11748;50.844;4.396;2022-07-17T04:30:35;17.60;96.40
23160;DHT22;11748;50.844;4.396;2022-07-17T04:33:02;17.50;96.30
23160;DHT22;11748;50.844;4.396;2022-07-17T04:35:28;17.50;96.40
23160;DHT22;11748;50.844;4.396;2022-07-17T04:37:54;17.50;96.40
23160;DHT22;11748;50.844;4.396;2022-07-17T04:40:20;17.50;96.40
23160;DHT22;11748;50.844;4.396;2022-07-17T04:42:46;17.50;96.20
23160;DHT22;11748;50.844;4.396;2022-07-17T04:45:12;17.60;96.20
23160;DHT22;11748;50.844;4.396;2022-07-17T04:47:39;17.60;96.30
23160;DHT22;11748;50.844;4.396;2022-07-17T04:50:08;17.50;96.20
23160;DHT22;11748;50.844;4.396;2022-07-17T04:52:34;17.60;96.20
23160;DHT22;11748;50.844;4.396;2022-07-17T04:55:00;17.60;96.20
23160;DHT22;11748;50.844;4.396;2022-07-17T04:57:26;17.60;96.20
23160;DHT22;11748;50.844;4.396;2022-07-17T04:59:52;17.60;96.20
23160;DHT22;11748;50.844;4.396;2022-07-17T05:02:18;17.60;96.20
23160;DHT22;11748;50.844;4.396;2022-07-17T05:04:44;17.50;96.20
23160;DHT22;11748;50.844;4.396;2022-07-17T05:07:10;17.60;96.20
23160;DHT22;11748;50.844;4.396;2022-07-17T05:09:36;17.60;96.10
23160;DHT22;11748;50.844;4.396;2022-07-17T05:12:03;17.60;96.10
23160;DHT22;11748;50.844;4.396;2022-07-17T05:14:29;17.60;96.20
23160;DHT22;11748;50.844;4.396;2022-07-17T05:16:55;17.60;96.20
23160;DHT22;11748;50.844;4.396;2022-07-17T05:19:21;17.60;96.10
23160;DHT22;11748;50.844;4.396;2022-07-17T05:21:49;17.60;96.10
23160;DHT22;11748;50.844;4.396;2022-07-17T05:24:14;17.70;96.00
23160;DHT22;11748;50.844;4.396;2022-07-17T05:26:40;17.80;95.90
23160;DHT22;11748;50.844;4.396;2022-07-17T05:29:07;17.80;95.90
23160;DHT22;11748;50.844;4.396;2022-07-17T05:31:33;17.80;95.80
23160;DHT22;11748;50.844;4.396;2022-07-17T05:33:59;17.80;95.80
23160;DHT22;11748;50.844;4.396;2022-07-17T05:36:25;17.80;95.80
23160;DHT22;11748;50.844;4.396;2022-07-17T05:38:54;17.90;95.70
23160;DHT22;11748;50.844;4.396;2022-07-17T05:41:19;17.90;95.60
23160;DHT22;11748;50.844;4.396;2022-07-17T05:43:45;17.90;95.70
23160;DHT22;11748;50.844;4.396;2022-07-17T05:46:11;17.90;95.70
23160;DHT22;11748;50.844;4.396;2022-07-17T05:48:36;18.00;95.70
23160;DHT22;11748;50.844;4.396;2022-07-17T05:51:03;18.00;95.60
23160;DHT22;11748;50.844;4.396;2022-07-17T05:53:29;18.10;95.60
23160;DHT22;11748;50.844;4.396;2022-07-17T05:55:56;18.20;95.50
23160;DHT22;11748;50.844;4.396;2022-07-17T05:58:22;18.30;95.40
23160;DHT22;11748;50.844;4.396;2022-07-17T06:00:48;18.30;95.30
23160;DHT22;11748;50.844;4.396;2022-07-17T06:03:15;18.40;95.20
23160;DHT22;11748;50.844;4.396;2022-07-17T06:05:42;18.50;95.00
23160;DHT22;11748;50.844;4.396;2022-07-17T06:08:07;18.60;94.90
23160;DHT22;11748;50.844;4.396;2022-07-17T06:10:36;18.60;94.80
23160;DHT22;11748;50.844;4.396;2022-07-17T06:13:04;18.60;94.70
23160;DHT22;11748;50.844;4.396;2022-07-17T06:15:30;18.60;95.00
23160;DHT22;11748;50.844;4.396;2022-07-17T06:17:55;18.70;94.60
23160;DHT22;11748;50.844;4.396;2022-07-17T06:20:25;18.90;94.60
23160;DHT22;11748;50.844;4.396;2022-07-17T06:22:50;19.80;94.10
23160;DHT22;11748;50.844;4.396;2022-07-17T06:25:16;21.40;92.20
23160;DHT22;11748;50.844;4.396;2022-07-17T06:27:42;22.90;90.20
23160;DHT22;11748;50.844;4.396;2022-07-17T06:30:09;24.20;86.90
23160;DHT22;11748;50.844;4.396;2022-07-17T06:32:35;25.10;83.80
23160;DHT22;11748;50.844;4.396;2022-07-17T06:35:01;25.60;82.10
23160;DHT22;11748;50.844;4.396;2022-07-17T06:37:27;26.20;80.20
23160;DHT22;11748;50.844;4.396;2022-07-17T06:39:52;26.40;79.20
23160;DHT22;11748;50.844;4.396;2022-07-17T06:42:18;26.20;79.50
23160;DHT22;11748;50.844;4.396;2022-07-17T06:44:44;25.70;79.90
23160;DHT22;11748;50.844;4.396;2022-07-17T06:47:10;25.10;81.20
23160;DHT22;11748;50.844;4.396;2022-07-17T06:49:37;24.30;82.90
23160;DHT22;11748;50.844;4.396;2022-07-17T06:52:02;23.70;84.40
23160;DHT22;11748;50.844;4.396;2022-07-17T06:54:28;23.20;85.70
23160;DHT22;11748;50.844;4.396;2022-07-17T06:56:54;22.80;86.60
23160;DHT22;11748;50.844;4.396;2022-07-17T06:59:20;22.50;87.50
23160;DHT22;11748;50.844;4.396;2022-07-17T07:01:46;22.30;88.00
23160;DHT22;11748;50.844;4.396;2022-07-17T07:04:14;22.20;88.60
23160;DHT22;11748;50.844;4.396;2022-07-17T07:06:42;22.00;89.10
23160;DHT22;11748;50.844;4.396;2022-07-17T07:09:09;21.90;89.20
23160;DHT22;11748;50.844;4.396;2022-07-17T07:11:38;21.80;89.50
23160;DHT22;11748;50.844;4.396;2022-07-17T07:14:04;21.70;89.70
23160;DHT22;11748;50.844;4.396;2022-07-17T07:16:30;21.70;90.00
23160;DHT22;11748;50.844;4.396;2022-07-17T07:18:56;21.70;90.20
23160;DHT22;11748;50.844;4.396;2022-07-17T07:21:24;21.70;90.10
23160;DHT22;11748;50.844;4.396;2022-07-17T07:23:52;21.70;90.00
23160;DHT22;11748;50.844;4.396;2022-07-17T07:26:18;21.70;89.90
23160;DHT22;11748;50.844;4.396;2022-07-17T07:28:44;21.70;89.80
23160;DHT22;11748;50.844;4.396;2022-07-17T07:31:10;21.60;90.00
23160;DHT22;11748;50.844;4.396;2022-07-17T07:33:38;21.60;90.10
23160;DHT22;11748;50.844;4.396;2022-07-17T07:36:04;21.40;90.30
23160;DHT22;11748;50.844;4.396;2022-07-17T07:38:31;21.20;90.60
23160;DHT22;11748;50.844;4.396;2022-07-17T07:40:56;21.30;90.60
23160;DHT22;11748;50.844;4.396;2022-07-17T07:43:22;21.40;90.50
23160;DHT22;11748;50.844;4.396;2022-07-17T07:45:49;21.50;90.10
23160;DHT22;11748;50.844;4.396;2022-07-17T07:48:15;21.50;90.20
23160;DHT22;11748;50.844;4.396;2022-07-17T07:50:40;21.70;90.30
23160;DHT22;11748;50.844;4.396;2022-07-17T07:53:06;21.70;90.50
23160;DHT22;11748;50.844;4.396;2022-07-17T07:55:32;21.80;90.30
23160;DHT22;11748;50.844;4.396;2022-07-17T08:00:30;21.40;90.40
23160;DHT22;11748;50.844;4.396;2022-07-17T08:02:55;21.60;90.00
23160;DHT22;11748;50.844;4.396;2022-07-17T08:05:22;21.70;90.00
23160;DHT22;11748;50.844;4.396;2022-07-17T08:07:48;21.80;89.80
23160;DHT22;11748;50.844;4.396;2022-07-17T08:10:13;22.00;89.50
23160;DHT22;11748;50.844;4.396;2022-07-17T08:12:39;22.00;89.00
23160;DHT22;11748;50.844;4.396;2022-07-17T08:15:05;22.10;88.60
23160;DHT22;11748;50.844;4.396;2022-07-17T08:17:31;22.20;88.10
23160;DHT22;11748;50.844;4.396;2022-07-17T08:19:57;21.90;88.90
23160;DHT22;11748;50.844;4.396;2022-07-17T08:22:24;21.90;89.00
23160;DHT22;11748;50.844;4.396;2022-07-17T08:24:49;21.90;89.30
23160;DHT22;11748;50.844;4.396;2022-07-17T08:27:15;22.20;89.20
23160;DHT22;11748;50.844;4.396;2022-07-17T08:29:42;22.30;88.40
23160;DHT22;11748;50.844;4.396;2022-07-17T08:32:08;22.30;88.90
23160;DHT22;11748;50.844;4.396;2022-07-17T08:34:34;22.40;88.80
23160;DHT22;11748;50.844;4.396;2022-07-17T08:37:01;22.60;87.30
23160;DHT22;11748;50.844;4.396;2022-07-17T08:39:27;22.50;87.40
23160;DHT22;11748;50.844;4.396;2022-07-17T08:41:52;22.50;87.90
23160;DHT22;11748;50.844;4.396;2022-07-17T08:44:18;22.30;88.10
23160;DHT22;11748;50.844;4.396;2022-07-17T08:46:44;22.00;88.40
23160;DHT22;11748;50.844;4.396;2022-07-17T08:49:10;22.20;88.20
23160;DHT22;11748;50.844;4.396;2022-07-17T08:51:37;22.40;87.40
23160;DHT22;11748;50.844;4.396;2022-07-17T08:54:03;22.60;86.80
23160;DHT22;11748;50.844;4.396;2022-07-17T08:56:29;22.70;86.10
23160;DHT22;11748;50.844;4.396;2022-07-17T08:58:54;22.80;86.50
23160;DHT22;11748;50.844;4.396;2022-07-17T09:01:22;22.80;86.70
23160;DHT22;11748;50.844;4.396;2022-07-17T09:04:02;22.90;86.10
23160;DHT22;11748;50.844;4.396;2022-07-17T09:06:32;22.90;86.30
23160;DHT22;11748;50.844;4.396;2022-07-17T09:09:04;22.80;86.30
23160;DHT22;11748;50.844;4.396;2022-07-17T09:11:52;22.80;86.40
23160;DHT22;11748;50.844;4.396;2022-07-17T09:14:21;23.10;86.00
23160;DHT22;11748;50.844;4.396;2022-07-17T09:16:57;23.10;85.40
23160;DHT22;11748;50.844;4.396;2022-07-17T09:19:29;23.10;84.60
23160;DHT22;11748;50.844;4.396;2022-07-17T09:24:41;22.90;85.10
23160;DHT22;11748;50.844;4.396;2022-07-17T09:27:08;23.00;85.30
23160;DHT22;11748;50.844;4.396;2022-07-17T09:29:35;22.90;85.10
23160;DHT22;11748;50.844;4.396;2022-07-17T09:32:01;23.00;85.10
23160;DHT22;11748;50.844;4.396;2022-07-17T09:34:27;23.20;85.00
23160;DHT22;11748;50.844;4.396;2022-07-17T09:37:00;23.30;85.00
23160;DHT22;11748;50.844;4.396;2022-07-17T09:39:35;23.40;84.00
23160;DHT22;11748;50.844;4.396;2022-07-17T09:42:01;23.20;84.00
23160;DHT22;11748;50.844;4.396;2022-07-17T09:44:26;23.40;84.10
23160;DHT22;11748;50.844;4.396;2022-07-17T09:46:53;23.50;83.70
23160;DHT22;11748;50.844;4.396;2022-07-17T09:49:24;23.60;83.40
23160;DHT22;11748;50.844;4.396;2022-07-17T09:51:51;23.60;82.10
23160;DHT22;11748;50.844;4.396;2022-07-17T09:54:21;23.30;82.70
23160;DHT22;11748;50.844;4.396;2022-07-17T09:56:50;23.40;83.40
23160;DHT22;11748;50.844;4.396;2022-07-17T09:59:17;23.50;82.20
23160;DHT22;11748;50.844;4.396;2022-07-17T10:01:45;23.80;82.40
23160;DHT22;11748;50.844;4.396;2022-07-17T10:04:15;23.90;81.30
23160;DHT22;11748;50.844;4.396;2022-07-17T10:06:42;24.00;80.70
23160;DHT22;11748;50.844;4.396;2022-07-17T10:09:08;24.00;80.80
23160;DHT22;11748;50.844;4.396;2022-07-17T10:11:36;24.20;81.30
23160;DHT22;11748;50.844;4.396;2022-07-17T10:14:05;24.10;81.30
23160;DHT22;11748;50.844;4.396;2022-07-17T10:16:33;24.20;81.60
23160;DHT22;11748;50.844;4.396;2022-07-17T10:19:00;24.30;81.40
23160;DHT22;11748;50.844;4.396;2022-07-17T10:21:29;24.40;80.20
23160;DHT22;11748;50.844;4.396;2022-07-17T10:29:03;24.50;78.50
23160;DHT22;11748;50.844;4.396;2022-07-17T10:31:32;24.60;78.00
23160;DHT22;11748;50.844;4.396;2022-07-17T10:34:01;24.60;79.00
23160;DHT22;11748;50.844;4.396;2022-07-17T10:36:36;24.60;79.10
23160;DHT22;11748;50.844;4.396;2022-07-17T10:39:12;24.60;78.90
23160;DHT22;11748;50.844;4.396;2022-07-17T10:41:42;24.70;77.70
23160;DHT22;11748;50.844;4.396;2022-07-17T10:44:08;24.80;77.50
23160;DHT22;11748;50.844;4.396;2022-07-17T10:46:34;24.90;76.90
23160;DHT22;11748;50.844;4.396;2022-07-17T10:49:02;24.80;76.80
23160;DHT22;11748;50.844;4.396;2022-07-17T10:51:31;24.90;76.90
23160;DHT22;11748;50.844;4.396;2022-07-17T10:53:59;25.00;76.40
23160;DHT22;11748;50.844;4.396;2022-07-17T10:56:25;25.00;76.00
23160;DHT22;11748;50.844;4.396;2022-07-17T10:58:53;25.10;75.80
23160;DHT22;11748;50.844;4.396;2022-07-17T11:01:25;25.00;76.90
23160;DHT22;11748;50.844;4.396;2022-07-17T11:03:53;24.60;76.20
23160;DHT22;11748;50.844;4.396;2022-07-17T11:06:22;24.60;77.60
23160;DHT22;11748;50.844;4.396;2022-07-17T11:08:52;24.80;78.50
23160;DHT22;11748;50.844;4.396;2022-07-17T11:11:50;25.00;78.50
23160;DHT22;11748;50.844;4.396;2022-07-17T11:14:24;25.20;78.50
23160;DHT22;11748;50.844;4.396;2022-07-17T11:16:53;25.20;77.50
23160;DHT22;11748;50.844;4.396;2022-07-17T11:21:51;25.70;77.00
23160;DHT22;11748;50.844;4.396;2022-07-17T11:24:17;25.90;75.20
23160;DHT22;11748;50.844;4.396;2022-07-17T11:26:43;25.90;74.50
23160;DHT22;11748;50.844;4.396;2022-07-17T11:29:12;26.10;73.40
23160;DHT22;11748;50.844;4.396;2022-07-17T11:31:40;26.20;73.20
23160;DHT22;11748;50.844;4.396;2022-07-17T11:34:07;26.30;72.80
23160;DHT22;11748;50.844;4.396;2022-07-17T11:36:38;26.30;72.70
23160;DHT22;11748;50.844;4.396;2022-07-17T11:39:14;26.30;72.70
23160;DHT22;11748;50.844;4.396;2022-07-17T11:44:21;26.30;72.50
23160;DHT22;11748;50.844;4.396;2022-07-17T11:46:52;26.40;72.50
23160;DHT22;11748;50.844;4.396;2022-07-17T11:49:33;26.50;71.90
23160;DHT22;11748;50.844;4.396;2022-07-17T11:52:11;26.60;71.30
23160;DHT22;11748;50.844;4.396;2022-07-17T11:54:48;26.60;71.40
23160;DHT22;11748;50.844;4.396;2022-07-17T11:57:15;26.70;70.10
23160;DHT22;11748;50.844;4.396;2022-07-17T11:59:44;26.70;68.90
23160;DHT22;11748;50.844;4.396;2022-07-17T12:02:19;26.80;69.20
23160;DHT22;11748;50.844;4.396;2022-07-17T12:04:54;26.80;68.30
23160;DHT22;11748;50.844;4.396;2022-07-17T12:07:22;26.90;68.00
23160;DHT22;11748;50.844;4.396;2022-07-17T12:09:49;26.90;68.60
23160;DHT22;11748;50.844;4.396;2022-07-17T12:12:21;26.90;69.10
23160;DHT22;11748;50.844;4.396;2022-07-17T12:14:59;27.00;69.40
23160;DHT22;11748;50.844;4.396;2022-07-17T12:17:40;27.10;68.00
23160;DHT22;11748;50.844;4.396;2022-07-17T12:20:07;27.20;68.10
23160;DHT22;11748;50.844;4.396;2022-07-17T12:22:48;27.30;67.70
23160;DHT22;11748;50.844;4.396;2022-07-17T12:25:28;27.40;67.80
23160;DHT22;11748;50.844;4.396;2022-07-17T12:27:55;27.40;65.40
23160;DHT22;11748;50.844;4.396;2022-07-17T12:30:21;27.50;67.80
23160;DHT22;11748;50.844;4.396;2022-07-17T12:32:47;27.50;68.80
23160;DHT22;11748;50.844;4.396;2022-07-17T12:35:16;27.50;68.50
23160;DHT22;11748;50.844;4.396;2022-07-17T12:37:43;27.60;70.00
23160;DHT22;11748;50.844;4.396;2022-07-17T12:40:11;27.30;71.20
23160;DHT22;11748;50.844;4.396;2022-07-17T12:42:39;27.00;71.70
23160;DHT22;11748;50.844;4.396;2022-07-17T12:45:11;26.70;72.30
23160;DHT22;11748;50.844;4.396;2022-07-17T12:47:37;26.70;72.10
23160;DHT22;11748;50.844;4.396;2022-07-17T12:50:04;27.00;71.30
23160;DHT22;11748;50.844;4.396;2022-07-17T12:52:32;27.40;70.90
23160;DHT22;11748;50.844;4.396;2022-07-17T12:54:57;27.30;70.00
23160;DHT22;11748;50.844;4.396;2022-07-17T12:57:24;27.10;70.30
23160;DHT22;11748;50.844;4.396;2022-07-17T12:59:58;27.40;68.40
23160;DHT22;11748;50.844;4.396;2022-07-17T13:02:24;27.60;68.50
23160;DHT22;11748;50.844;4.396;2022-07-17T13:04:49;27.60;69.90
23160;DHT22;11748;50.844;4.396;2022-07-17T13:07:15;27.30;70.70
23160;DHT22;11748;50.844;4.396;2022-07-17T13:09:41;27.30;71.20
23160;DHT22;11748;50.844;4.396;2022-07-17T13:12:07;27.00;71.80
23160;DHT22;11748;50.844;4.396;2022-07-17T13:14:36;27.10;69.80
23160;DHT22;11748;50.844;4.396;2022-07-17T13:17:03;27.40;67.50
23160;DHT22;11748;50.844;4.396;2022-07-17T13:19:29;27.70;66.40
23160;DHT22;11748;50.844;4.396;2022-07-17T13:21:54;27.50;66.30
23160;DHT22;11748;50.844;4.396;2022-07-17T13:24:20;27.40;66.40
23160;DHT22;11748;50.844;4.396;2022-07-17T13:26:46;27.50;66.90
23160;DHT22;11748;50.844;4.396;2022-07-17T13:29:12;27.70;67.20
23160;DHT22;11748;50.844;4.396;2022-07-17T13:31:44;27.70;66.70
23160;DHT22;11748;50.844;4.396;2022-07-17T13:34:10;27.60;68.30
23160;DHT22;11748;50.844;4.396;2022-07-17T13:36:35;27.60;68.40
23160;DHT22;11748;50.844;4.396;2022-07-17T13:39:01;27.80;68.00
23160;DHT22;11748;50.844;4.396;2022-07-17T13:41:27;27.90;68.80
23160;DHT22;11748;50.844;4.396;2022-07-17T13:43:53;27.90;68.90
23160;DHT22;11748;50.844;4.396;2022-07-17T13:46:18;27.90;69.20
23160;DHT22;11748;50.844;4.396;2022-07-17T13:48:45;27.70;69.20
23160;DHT22;11748;50.844;4.396;2022-07-17T13:51:12;28.00;68.70
23160;DHT22;11748;50.844;4.396;2022-07-17T13:53:38;27.80;68.20
23160;DHT22;11748;50.844;4.396;2022-07-17T13:56:04;27.70;68.50
23160;DHT22;11748;50.844;4.396;2022-07-17T13:58:31;28.10;67.80
23160;DHT22;11748;50.844;4.396;2022-07-17T14:01:01;28.10;67.70
23160;DHT22;11748;50.844;4.396;2022-07-17T14:03:31;28.10;67.00
23160;DHT22;11748;50.844;4.396;2022-07-17T14:05:58;28.20;66.50
23160;DHT22;11748;50.844;4.396;2022-07-17T14:08:24;27.90;67.00
23160;DHT22;11748;50.844;4.396;2022-07-17T14:10:50;28.10;66.10
23160;DHT22;11748;50.844;4.396;2022-07-17T14:13:16;28.20;66.00
23160;DHT22;11748;50.844;4.396;2022-07-17T14:15:43;28.30;65.50
23160;DHT22;11748;50.844;4.396;2022-07-17T14:18:09;28.30;65.80
23160;DHT22;11748;50.844;4.396;2022-07-17T14:20:36;28.30;65.40
23160;DHT22;11748;50.844;4.396;2022-07-17T14:23:01;28.30;65.90
23160;DHT22;11748;50.844;4.396;2022-07-17T14:25:27;28.50;65.20
23160;DHT22;11748;50.844;4.396;2022-07-17T14:27:53;28.30;66.00
23160;DHT22;11748;50.844;4.396;2022-07-17T14:30:20;28.40;65.10
23160;DHT22;11748;50.844;4.396;2022-07-17T14:32:49;28.60;65.10
23160;DHT22;11748;50.844;4.396;2022-07-17T14:35:14;28.40;65.10
23160;DHT22;11748;50.844;4.396;2022-07-17T14:37:40;28.40;65.20
23160;DHT22;11748;50.844;4.396;2022-07-17T14:40:14;28.50;65.70
23160;DHT22;11748;50.844;4.396;2022-07-17T14:42:40;28.50;65.30
23160;DHT22;11748;50.844;4.396;2022-07-17T14:45:07;28.50;65.30
23160;DHT22;11748;50.844;4.396;2022-07-17T14:47:41;28.50;65.40
23160;DHT22;11748;50.844;4.396;2022-07-17T14:50:08;28.60;64.80
23160;DHT22;11748;50.844;4.396;2022-07-17T14:52:35;28.40;65.10
23160;DHT22;11748;50.844;4.396;2022-07-17T14:55:01;28.30;65.20
23160;DHT22;11748;50.844;4.396;2022-07-17T14:57:27;28.00;65.30
23160;DHT22;11748;50.844;4.396;2022-07-17T14:59:52;28.30;65.50
23160;DHT22;11748;50.844;4.396;2022-07-17T15:02:18;28.40;65.50
23160;DHT22;11748;50.844;4.396;2022-07-17T15:04:45;28.50;65.70
23160;DHT22;11748;50.844;4.396;2022-07-17T15:07:11;28.50;65.50
23160;DHT22;11748;50.844;4.396;2022-07-17T15:09:37;28.60;65.30
23160;DHT22;11748;50.844;4.396;2022-07-17T15:12:04;28.60;65.00
23160;DHT22;11748;50.844;4.396;2022-07-17T15:14:29;28.80;64.60
23160;DHT22;11748;50.844;4.396;2022-07-17T15:16:55;28.80;63.90
23160;DHT22;11748;50.844;4.396;2022-07-17T15:19:22;28.80;63.60
23160;DHT22;11748;50.844;4.396;2022-07-17T15:21:48;28.90;63.70
23160;DHT22;11748;50.844;4.396;2022-07-17T15:24:14;28.90;63.60
23160;DHT22;11748;50.844;4.396;2022-07-17T15:26:40;28.80;63.40
23160;DHT22;11748;50.844;4.396;2022-07-17T15:29:06;28.80;63.60
23160;DHT22;11748;50.844;4.396;2022-07-17T15:31:32;28.70;63.20
23160;DHT22;11748;50.844;4.396;2022-07-17T15:33:58;28.70;63.70
23160;DHT22;11748;50.844;4.396;2022-07-17T15:36:23;28.70;63.90
23160;DHT22;11748;50.844;4.396;2022-07-17T15:38:57;28.50;64.00
23160;DHT22;11748;50.844;4.396;2022-07-17T15:41:25;28.60;63.50
23160;DHT22;11748;50.844;4.396;2022-07-17T15:43:57;28.70;63.60
23160;DHT22;11748;50.844;4.396;2022-07-17T15:46:24;28.80;63.40
23160;DHT22;11748;50.844;4.396;2022-07-17T15:48:49;28.70;63.60